Terminal Aerodrome Forecast
Issued by NWS

Home | Current Version | Previous Version | Text Only | Print | Product List | Glossary On
Versions: 1 2 3 4 5 6 7 8 9 10 11
317
FTUS43 KEAX 241120
TAFSTJ
TAF
KSTJ 241120Z 2412/2512 16011KT P6SM FEW250
     FM241400 17021G32KT P6SM FEW250
     FM250200 18010KT P6SM FEW250
     FM250600 16008KT P6SM SCT200 WS020/20035KT
      AMD NOT SKED=

USA.gov is the U.S. government's official web portal to all federal, state and local government web resources and services.